createdAt,value
2022-10-14T00:00:29.830Z,48.01
2022-10-14T00:02:56.204Z,47.99
2022-10-14T00:05:22.643Z,47.83
2022-10-14T00:07:49.003Z,48.05
2022-10-14T00:10:15.456Z,48.26
2022-10-14T00:12:41.809Z,48.32
2022-10-14T00:15:08.490Z,48.09
2022-10-14T00:17:35.756Z,48.45
2022-10-14T00:20:02.163Z,48.44
2022-10-14T00:22:28.584Z,48.47
2022-10-14T00:24:54.967Z,48.06
2022-10-14T00:27:21.661Z,48.09
2022-10-14T00:29:48.222Z,47.98
2022-10-14T00:32:14.831Z,48.38
2022-10-14T00:34:41.263Z,48.35
2022-10-14T00:37:07.619Z,48.60
2022-10-14T00:39:33.966Z,48.29
2022-10-14T00:42:00.365Z,48.12
2022-10-14T00:44:26.687Z,48.26
2022-10-14T00:46:53.528Z,48.62
2022-10-14T00:49:22.910Z,48.67
2022-10-14T00:51:52.795Z,48.43
2022-10-14T00:54:23.105Z,48.89
2022-10-14T00:56:50.552Z,49.09
2022-10-14T00:59:17.121Z,48.61
2022-10-14T01:01:43.500Z,48.65
2022-10-14T01:04:09.829Z,48.79
2022-10-14T01:06:36.156Z,49.04
2022-10-14T01:09:23.809Z,48.72
2022-10-14T01:31:37.802Z,48.82
2022-10-14T01:34:07.318Z,49.25
2022-10-14T01:36:37.123Z,48.96
2022-10-14T01:39:10.063Z,49.11
2022-10-14T01:41:39.281Z,49.35
2022-10-14T01:44:08.656Z,49.30
2022-10-14T01:46:36.670Z,49.11
2022-10-14T01:49:05.764Z,48.95
2022-10-14T01:51:39.559Z,48.94
2022-10-14T01:54:08.561Z,48.99
2022-10-14T01:56:40.193Z,49.02
2022-10-14T01:59:08.461Z,49.25
2022-10-14T02:01:36.696Z,49.34
2022-10-14T02:04:03.138Z,48.97
2022-10-14T02:06:30.916Z,49.39
2022-10-14T02:09:03.395Z,49.09
2022-10-14T02:11:34.366Z,49.51
2022-10-14T02:14:09.163Z,50.00
2022-10-14T02:16:41.338Z,49.76
2022-10-14T02:19:07.670Z,49.85
2022-10-14T02:21:39.988Z,49.55
2022-10-14T02:24:12.332Z,50.06
2022-10-14T02:26:40.237Z,49.67
2022-10-14T02:29:06.880Z,49.23
2022-10-14T02:31:34.855Z,49.24
2022-10-14T02:34:03.370Z,49.43
2022-10-14T02:36:30.310Z,49.43
2022-10-14T02:38:58.374Z,49.55
2022-10-14T02:41:27.311Z,49.55
2022-10-14T02:43:53.722Z,50.08
2022-10-14T02:46:21.375Z,49.95
2022-10-14T02:48:48.422Z,49.74
2022-10-14T02:51:14.818Z,49.68
2022-10-14T02:53:41.175Z,49.53
2022-10-14T02:56:07.687Z,49.63
2022-10-14T02:58:34.092Z,49.65
2022-10-14T03:01:00.455Z,49.56
2022-10-14T03:03:26.806Z,49.96
2022-10-14T03:05:53.291Z,50.01
2022-10-14T03:08:19.635Z,49.77
2022-10-14T03:10:46.788Z,49.50
2022-10-14T03:13:13.111Z,49.38
2022-10-14T03:15:39.594Z,49.32
2022-10-14T03:18:05.969Z,49.42
2022-10-14T03:20:32.295Z,49.92
2022-10-14T03:22:58.688Z,49.62
2022-10-14T03:25:25.091Z,50.06
2022-10-14T03:27:51.444Z,50.39
2022-10-14T03:30:17.887Z,50.30
2022-10-14T03:32:44.256Z,50.03
2022-10-14T03:35:10.818Z,50.06
2022-10-14T03:37:37.215Z,49.94
2022-10-14T03:40:03.720Z,50.18
2022-10-14T03:42:30.080Z,50.02
2022-10-14T03:44:56.412Z,50.23
2022-10-14T03:47:22.840Z,49.76
2022-10-14T03:49:49.300Z,49.93
2022-10-14T03:52:15.706Z,50.28
2022-10-14T03:54:42.111Z,49.86
2022-10-14T03:57:08.504Z,50.27
2022-10-14T03:59:34.869Z,49.97
2022-10-14T04:02:01.254Z,50.35
2022-10-14T04:04:27.696Z,50.33
2022-10-14T04:06:54.473Z,50.32
2022-10-14T04:09:20.839Z,50.14
2022-10-14T04:11:47.218Z,50.47
2022-10-14T04:14:13.556Z,50.42
2022-10-14T04:16:39.939Z,50.18
2022-10-14T04:19:06.303Z,50.26
2022-10-14T04:21:32.712Z,50.29
2022-10-14T04:23:59.031Z,50.44
2022-10-14T04:26:25.425Z,50.35
2022-10-14T04:28:51.845Z,50.49
2022-10-14T04:31:18.346Z,50.09
2022-10-14T04:33:44.708Z,50.38
2022-10-14T04:36:11.069Z,50.14
2022-10-14T04:38:38.705Z,49.98
2022-10-14T04:41:05.172Z,50.14
2022-10-14T04:43:31.563Z,50.25
2022-10-14T04:45:57.978Z,50.54
2022-10-14T04:48:24.373Z,50.34
2022-10-14T04:50:54.004Z,50.32
2022-10-14T04:53:22.378Z,50.20
2022-10-14T04:55:49.760Z,50.82
2022-10-14T04:58:16.992Z,50.25
2022-10-14T05:00:43.523Z,50.23
2022-10-14T05:03:09.896Z,50.18
2022-10-14T05:05:36.257Z,50.41
2022-10-14T05:08:02.811Z,50.14
2022-10-14T05:10:29.178Z,50.07
2022-10-14T05:12:55.570Z,50.18
2022-10-14T05:15:22.043Z,50.04
2022-10-14T05:17:48.379Z,50.28
2022-10-14T05:20:14.872Z,50.36
2022-10-14T05:22:41.231Z,49.92
2022-10-14T05:25:07.707Z,49.99
2022-10-14T05:27:34.149Z,50.09
2022-10-14T05:30:00.668Z,49.97
2022-10-14T05:32:27.036Z,49.74
2022-10-14T05:34:53.362Z,49.62
2022-10-14T05:37:19.711Z,49.64
2022-10-14T05:39:46.581Z,49.56
2022-10-14T05:42:12.964Z,49.67
2022-10-14T05:44:39.332Z,49.51
2022-10-14T05:47:05.677Z,49.57
2022-10-14T05:49:32.000Z,49.45
2022-10-14T07:17:50.414Z,50.53
2022-10-14T07:20:19.446Z,50.92
2022-10-14T07:22:45.878Z,50.49
2022-10-14T07:25:12.626Z,50.92
2022-10-14T07:27:39.003Z,50.45
2022-10-14T07:30:08.266Z,50.99
2022-10-14T07:32:36.855Z,50.54
2022-10-14T07:35:04.104Z,50.45
2022-10-14T07:37:30.487Z,50.88
2022-10-14T07:39:56.863Z,50.61
2022-10-14T07:42:23.215Z,50.81
2022-10-14T07:44:50.312Z,50.98
2022-10-14T07:47:16.773Z,51.19
2022-10-14T07:49:43.134Z,50.65
2022-10-14T07:52:09.538Z,50.46
2022-10-14T07:54:35.899Z,50.68
2022-10-14T07:57:02.274Z,50.56
2022-10-14T07:59:28.732Z,50.73
2022-10-14T08:01:56.672Z,50.85
2022-10-14T08:04:23.987Z,51.97
2022-10-14T08:06:51.127Z,51.15
2022-10-14T08:09:18.629Z,50.95
2022-10-14T08:11:45.316Z,50.50
2022-10-14T08:14:12.044Z,50.95
2022-10-14T08:16:38.898Z,50.64
2022-10-14T08:19:12.557Z,51.24
2022-10-14T08:21:41.504Z,50.99
2022-10-14T08:24:08.131Z,50.32
2022-10-14T08:26:36.327Z,51.21
2022-10-14T08:29:04.602Z,50.65
2022-10-14T08:31:31.816Z,50.90
2022-10-14T08:33:58.387Z,50.83
2022-10-14T08:36:24.826Z,50.90
2022-10-14T08:38:52.367Z,50.87
2022-10-14T08:41:37.596Z,50.95
2022-10-14T08:44:04.075Z,50.96
2022-10-14T08:46:51.967Z,50.94
2022-10-14T08:49:28.906Z,51.01
2022-10-14T08:51:58.893Z,51.64
2022-10-14T08:54:32.140Z,51.37
2022-10-14T08:56:58.919Z,51.37
2022-10-14T08:59:26.348Z,51.17
2022-10-14T09:01:55.378Z,50.95
2022-10-14T09:04:22.088Z,51.46
2022-10-14T09:06:51.939Z,51.68
2022-10-14T09:09:33.618Z,51.33
2022-10-14T09:12:02.746Z,50.85
2022-10-14T09:14:35.974Z,50.80
2022-10-14T09:17:06.641Z,50.97
2022-10-14T09:19:36.853Z,50.96
2022-10-14T09:22:03.359Z,50.55
2022-10-14T09:24:37.306Z,50.55
2022-10-14T09:27:10.083Z,50.25
2022-10-14T09:30:10.318Z,50.04
2022-10-14T09:32:40.463Z,50.00
2022-10-14T09:35:27.608Z,49.50
2022-10-14T09:37:54.120Z,49.67
2022-10-14T09:40:20.459Z,49.64
2022-10-14T09:42:57.011Z,49.21
2022-10-14T09:45:24.610Z,49.27
2022-10-14T09:47:51.041Z,49.01
2022-10-14T09:50:26.243Z,49.19
2022-10-14T09:52:54.473Z,48.80
2022-10-14T09:55:24.093Z,48.97
2022-10-14T09:58:17.139Z,48.48
2022-10-14T10:00:45.262Z,48.51
2022-10-14T10:03:24.629Z,48.40
2022-10-14T10:05:59.245Z,48.39
2022-10-14T10:08:26.680Z,48.48
2022-10-14T10:11:00.485Z,48.08
2022-10-14T10:13:33.321Z,48.29
2022-10-14T10:16:01.057Z,48.04
2022-10-14T10:18:27.502Z,48.10
2022-10-14T10:21:02.265Z,48.36
2022-10-14T10:23:29.566Z,48.29
2022-10-14T10:25:55.935Z,48.08
2022-10-14T10:28:32.149Z,48.38
2022-10-14T10:31:17.571Z,48.12
2022-10-14T10:33:43.935Z,48.12
2022-10-14T10:36:26.429Z,48.43
2022-10-14T10:39:02.681Z,48.63
2022-10-14T10:41:29.009Z,48.51
2022-10-14T10:43:58.337Z,48.68
2022-10-14T10:46:45.110Z,48.30
2022-10-14T10:49:20.702Z,48.58
2022-10-14T10:51:55.164Z,48.54
2022-10-14T10:54:41.318Z,48.72
2022-10-14T10:57:30.283Z,48.74
2022-10-14T11:00:01.450Z,48.61
2022-10-14T11:02:45.951Z,48.66
2022-10-14T11:05:16.050Z,48.70
2022-10-14T11:08:10.718Z,48.42
2022-10-14T11:11:14.886Z,48.30
2022-10-14T11:13:45.373Z,48.46
2022-10-14T11:16:34.429Z,48.42
2022-10-14T11:19:21.028Z,48.42
2022-10-14T11:21:47.397Z,48.64
2022-10-14T11:24:20.113Z,48.30
2022-10-14T11:26:49.535Z,48.12
2022-10-14T11:29:26.971Z,48.02
2022-10-14T11:32:12.117Z,47.99
2022-10-14T11:34:43.028Z,47.78
2022-10-14T11:37:28.529Z,47.99
2022-10-14T11:39:55.129Z,47.88
2022-10-14T11:42:33.613Z,47.84
2022-10-14T11:45:21.417Z,48.17
2022-10-14T11:47:49.171Z,47.64
2022-10-14T11:50:22.091Z,47.69
2022-10-14T11:52:56.372Z,47.73
2022-10-14T11:55:23.626Z,47.54
2022-10-14T11:57:53.744Z,47.16
2022-10-14T12:00:39.128Z,47.00
2022-10-14T12:03:09.667Z,47.16
2022-10-14T12:05:39.232Z,47.23
2022-10-14T12:08:27.006Z,46.85
2022-10-14T12:10:59.480Z,47.24
2022-10-14T12:13:34.649Z,46.81
2022-10-14T12:16:02.985Z,46.82
2022-10-14T12:18:30.470Z,47.08
2022-10-14T12:21:00.468Z,46.65
2022-10-14T12:23:33.415Z,47.02
2022-10-14T12:26:06.827Z,47.23
2022-10-14T12:28:34.191Z,47.12
2022-10-14T12:31:19.312Z,47.34
2022-10-14T12:34:04.480Z,47.22
2022-10-14T12:36:31.788Z,47.51
2022-10-14T12:39:16.968Z,47.62
2022-10-14T12:41:55.659Z,47.33
2022-10-14T12:44:23.705Z,47.42
2022-10-14T12:46:51.501Z,47.18
2022-10-14T12:49:26.975Z,47.40
2022-10-14T12:51:57.765Z,47.59
2022-10-14T12:54:24.717Z,47.59
2022-10-14T12:56:56.385Z,47.32
2022-10-14T12:59:25.575Z,47.38
2022-10-14T13:01:56.354Z,47.58
2022-10-14T13:04:25.895Z,47.58
2022-10-14T13:07:35.474Z,47.30
2022-10-14T13:10:02.303Z,47.66
2022-10-14T13:12:28.639Z,47.27
2022-10-14T13:14:55.017Z,47.37
2022-10-14T13:17:28.426Z,47.66
2022-10-14T13:19:54.969Z,47.41
2022-10-14T13:22:31.322Z,47.31
2022-10-14T13:25:12.200Z,47.65
2022-10-14T13:27:51.955Z,47.30
2022-10-14T13:30:22.141Z,47.35
2022-10-14T13:33:08.828Z,47.36
2022-10-14T13:35:57.988Z,47.46
2022-10-14T13:38:24.497Z,47.36
2022-10-14T13:40:57.705Z,47.74
2022-10-14T13:43:30.141Z,47.64
2022-10-14T13:46:01.725Z,47.86
2022-10-14T13:48:30.549Z,47.74
2022-10-14T13:51:17.533Z,47.61
2022-10-14T13:53:55.613Z,47.81
2022-10-14T13:56:25.985Z,47.60
2022-10-14T13:58:52.661Z,47.91
2022-10-14T14:01:21.116Z,47.50
2022-10-14T14:03:51.516Z,47.50
2022-10-14T14:06:19.251Z,47.66
2022-10-14T14:08:52.548Z,47.46
2022-10-14T14:11:23.488Z,47.51
2022-10-14T14:13:54.421Z,47.47
2022-10-14T14:16:22.442Z,47.55
2022-10-14T14:19:03.860Z,47.67
2022-10-14T14:21:34.045Z,47.37
2022-10-14T14:24:01.948Z,47.70
2022-10-14T14:26:32.746Z,47.84
2022-10-14T14:28:59.351Z,47.72
2022-10-14T14:31:33.646Z,47.46
2022-10-14T14:34:28.366Z,47.79
2022-10-14T14:37:05.717Z,47.75
2022-10-14T14:39:40.284Z,47.92
2022-10-14T14:42:11.622Z,47.67
2022-10-14T14:44:40.644Z,47.63
2022-10-14T14:47:07.291Z,47.65
2022-10-14T14:49:38.342Z,47.84
2022-10-14T14:52:05.382Z,47.60
2022-10-14T14:54:31.757Z,48.01
2022-10-14T14:57:01.111Z,47.84
2022-10-14T14:59:29.439Z,48.07
2022-10-14T15:01:57.115Z,47.78
2022-10-14T15:04:27.591Z,48.11
2022-10-14T15:06:56.741Z,47.79
2022-10-14T15:09:28.966Z,47.72
2022-10-14T15:11:58.011Z,47.69
2022-10-14T15:14:44.447Z,48.16
2022-10-14T15:17:29.555Z,48.17
2022-10-14T15:19:57.223Z,47.90
2022-10-14T15:22:29.582Z,48.12
2022-10-14T15:25:17.051Z,48.17
2022-10-14T15:27:47.483Z,48.00
2022-10-14T15:30:16.671Z,48.20
2022-10-14T15:32:43.343Z,48.16
2022-10-14T15:35:12.547Z,48.25
2022-10-14T15:37:39.175Z,48.18
2022-10-14T15:40:11.421Z,47.99
2022-10-14T15:42:38.004Z,48.02
2022-10-14T15:45:04.924Z,47.88
2022-10-14T15:47:31.600Z,48.23
2022-10-14T15:49:58.114Z,48.22
2022-10-14T15:52:29.595Z,48.28
2022-10-14T15:54:57.713Z,47.90
2022-10-14T15:57:24.572Z,47.97
2022-10-14T15:59:52.832Z,48.21
2022-10-14T16:02:25.411Z,48.17
2022-10-14T16:05:18.225Z,48.27
2022-10-14T16:07:38.705Z,47.98
2022-10-14T16:10:06.549Z,48.08
2022-10-14T16:12:32.978Z,47.98
2022-10-14T16:15:01.668Z,48.21
2022-10-14T16:17:28.428Z,48.14
2022-10-14T16:19:54.893Z,48.35
2022-10-14T16:22:23.752Z,48.35
2022-10-14T16:24:50.190Z,48.23
2022-10-14T16:27:19.633Z,47.92
2022-10-14T16:29:48.396Z,48.36
2022-10-14T16:32:14.833Z,48.04
2022-10-14T16:34:44.191Z,48.36
2022-10-14T16:37:10.662Z,48.14
2022-10-14T16:39:39.321Z,48.28
2022-10-14T16:42:09.265Z,48.59
2022-10-14T16:44:35.715Z,48.45
2022-10-14T16:47:17.412Z,48.15
2022-10-14T16:49:44.735Z,48.62
2022-10-14T16:52:11.435Z,48.47
2022-10-14T16:54:37.821Z,48.16
2022-10-14T16:57:04.634Z,48.29
2022-10-14T16:59:32.073Z,48.55
2022-10-14T17:01:58.623Z,48.29
2022-10-14T17:04:25.140Z,48.50
2022-10-14T17:06:53.268Z,48.59
2022-10-14T17:09:19.745Z,48.66
2022-10-14T17:11:46.830Z,48.36
2022-10-14T17:14:14.910Z,48.76
2022-10-14T17:16:41.948Z,48.55
2022-10-14T17:19:08.439Z,48.84
2022-10-14T17:21:34.786Z,48.50
2022-10-14T17:24:01.984Z,48.59
2022-10-14T17:26:29.575Z,48.88
2022-10-14T17:28:56.797Z,48.90
2022-10-14T17:31:24.495Z,48.65
2022-10-14T17:33:51.110Z,48.70
2022-10-14T17:36:19.582Z,48.66
2022-10-14T17:38:46.584Z,48.99
2022-10-14T17:41:13.589Z,48.65
2022-10-14T17:43:40.316Z,48.85
2022-10-14T17:46:13.536Z,48.72
2022-10-14T17:48:42.410Z,48.88
2022-10-14T17:51:09.568Z,48.98
2022-10-14T17:53:36.109Z,49.07
2022-10-14T17:56:03.392Z,49.19
2022-10-14T17:58:29.953Z,48.92
2022-10-14T18:01:02.650Z,49.13
2022-10-14T18:03:29.071Z,49.24
2022-10-14T18:05:55.451Z,48.99
2022-10-14T18:08:21.785Z,49.02
2022-10-14T18:10:48.184Z,49.25
2022-10-14T18:13:14.551Z,49.25
2022-10-14T18:15:41.203Z,49.21
2022-10-14T18:18:08.359Z,49.18
2022-10-14T18:20:36.235Z,49.44
2022-10-14T18:23:03.750Z,49.76
2022-10-14T18:25:31.306Z,49.71
2022-10-14T18:27:57.866Z,49.49
2022-10-14T18:30:24.311Z,49.60
2022-10-14T18:32:54.183Z,49.56
2022-10-14T18:35:20.548Z,49.86
2022-10-14T18:37:47.909Z,49.75
2022-10-14T18:40:16.968Z,49.83
2022-10-14T18:42:43.320Z,49.68
2022-10-14T18:45:09.917Z,50.03
2022-10-14T18:47:36.305Z,49.91
2022-10-14T18:52:30.014Z,49.77
2022-10-14T18:54:56.646Z,50.45
2022-10-14T18:57:25.447Z,49.98
2022-10-14T18:59:51.810Z,50.11
2022-10-14T19:02:18.278Z,50.16
2022-10-14T19:04:44.618Z,50.22
2022-10-14T19:07:11.015Z,50.46
2022-10-14T19:09:37.420Z,50.57
2022-10-14T19:12:24.359Z,50.62
2022-10-14T19:14:50.916Z,50.29
2022-10-14T19:17:17.401Z,50.61
2022-10-14T19:19:44.711Z,51.25
2022-10-14T19:22:11.199Z,50.94
2022-10-14T19:24:37.577Z,50.83
2022-10-14T19:27:04.010Z,51.29
2022-10-14T19:29:30.465Z,50.96
2022-10-14T19:31:57.307Z,51.28
2022-10-14T19:34:26.844Z,51.47
2022-10-14T19:36:53.821Z,51.35
2022-10-14T19:39:20.247Z,51.20
2022-10-14T19:41:47.571Z,51.13
2022-10-14T19:44:14.905Z,51.91
2022-10-14T19:46:41.686Z,51.44
2022-10-14T19:49:08.268Z,51.03
2022-10-14T19:51:35.087Z,51.02
2022-10-14T19:54:01.627Z,51.98
2022-10-14T19:56:28.322Z,53.69
2022-10-14T19:58:56.338Z,51.78
2022-10-14T20:01:24.046Z,51.93
2022-10-14T20:03:50.848Z,51.87
2022-10-14T20:06:17.346Z,51.28
2022-10-14T20:08:45.410Z,51.52
2022-10-14T20:11:12.886Z,52.68
2022-10-14T20:13:39.430Z,52.46
2022-10-14T20:16:07.955Z,52.53
2022-10-14T20:18:34.674Z,53.17
2022-10-14T20:21:01.493Z,51.99
2022-10-14T20:23:28.330Z,52.50
2022-10-14T20:26:05.327Z,52.30
2022-10-14T20:28:32.089Z,52.62
2022-10-14T20:30:58.634Z,53.03
2022-10-14T20:33:25.167Z,51.69
2022-10-14T20:36:01.939Z,53.29
2022-10-14T20:38:28.541Z,52.57
2022-10-14T20:40:55.024Z,52.42
2022-10-14T20:43:21.390Z,52.47
2022-10-14T20:45:47.837Z,52.45
2022-10-14T20:48:14.500Z,52.20
2022-10-14T20:50:41.592Z,53.16
2022-10-14T20:53:08.037Z,52.54
2022-10-14T20:55:34.492Z,52.17
2022-10-14T20:58:00.860Z,52.19
2022-10-14T21:00:27.557Z,52.82
2022-10-14T21:02:54.234Z,52.53
2022-10-14T21:05:20.727Z,53.18
2022-10-14T21:07:47.159Z,52.88
2022-10-14T21:10:13.804Z,52.82
2022-10-14T21:12:42.214Z,52.55
2022-10-14T21:15:10.794Z,53.12
2022-10-14T21:17:37.195Z,53.09
2022-10-14T21:20:03.877Z,53.27
2022-10-14T21:22:30.254Z,53.05
2022-10-14T21:24:56.718Z,52.94
2022-10-14T21:27:23.324Z,53.06
2022-10-14T21:29:50.202Z,53.05
2022-10-14T21:32:16.711Z,53.23
2022-10-14T21:34:43.092Z,53.15
2022-10-14T21:37:09.527Z,52.66
2022-10-14T21:39:36.063Z,53.48
2022-10-14T21:42:02.479Z,53.09
2022-10-14T21:44:28.924Z,52.77
2022-10-14T21:46:55.356Z,52.88
2022-10-14T21:49:21.869Z,52.79
2022-10-14T21:51:48.388Z,53.26
2022-10-14T21:54:14.829Z,53.76
2022-10-14T21:56:41.451Z,53.02
2022-10-14T21:59:07.835Z,52.87
2022-10-14T22:01:34.382Z,53.10
2022-10-14T22:04:03.868Z,52.89
2022-10-14T22:06:31.212Z,53.42
2022-10-14T22:08:58.470Z,53.28
2022-10-14T22:11:27.910Z,52.87
2022-10-14T22:13:55.282Z,53.37
2022-10-14T22:16:21.775Z,52.79
2022-10-14T22:18:50.743Z,53.45
2022-10-14T22:21:18.482Z,53.92
2022-10-14T22:23:45.427Z,53.65
2022-10-14T22:26:12.852Z,53.64
2022-10-14T22:28:39.668Z,53.52
2022-10-14T22:31:06.939Z,54.01
2022-10-14T22:33:33.987Z,53.67
2022-10-14T22:36:06.296Z,53.46
2022-10-14T22:38:32.881Z,53.80
2022-10-14T22:41:02.832Z,54.33
2022-10-14T22:43:29.228Z,54.37
2022-10-14T22:46:02.256Z,53.80
2022-10-14T22:48:30.016Z,53.16
2022-10-14T22:50:56.823Z,53.25
2022-10-14T22:53:23.276Z,53.56
2022-10-14T22:55:53.139Z,53.79
2022-10-14T22:58:19.584Z,53.50
2022-10-14T23:00:46.310Z,53.15
2022-10-14T23:03:12.751Z,53.37
2022-10-14T23:05:39.284Z,53.44
2022-10-14T23:08:10.687Z,55.50
2022-10-14T23:10:40.192Z,53.68
2022-10-14T23:13:06.924Z,53.79
2022-10-14T23:15:33.612Z,53.39
2022-10-14T23:18:00.387Z,53.48
2022-10-14T23:20:26.811Z,53.82
2022-10-14T23:22:53.176Z,53.23
2022-10-14T23:25:19.732Z,53.90
2022-10-14T23:27:46.191Z,53.79
2022-10-14T23:30:12.689Z,53.36
2022-10-14T23:32:39.072Z,53.39
2022-10-14T23:35:05.696Z,53.51
2022-10-14T23:37:32.156Z,53.84
2022-10-14T23:40:01.709Z,53.54
2022-10-14T23:42:28.138Z,53.67
2022-10-14T23:44:54.524Z,53.33
2022-10-14T23:47:21.179Z,53.61
2022-10-14T23:49:47.857Z,53.65
2022-10-14T23:52:14.244Z,53.76
2022-10-14T23:54:40.646Z,53.76
2022-10-14T23:57:07.194Z,54.02
2022-10-14T23:59:33.600Z,53.95
